(°F)
57°
57°
56°
56°
55°
55°
54°
(°F)
49°
48°
48°
48°
48°
47°
47°
W
W
W
W
W
W
W
(mph)
12-22
11-21
10-20
10-20
10-20
10-20
10-19
(in)
0
0
0
0
0
0
0
(%)
0
0
0
0
0
0
0

Sun elevation

/ -10.9°
sun-icon
UV 3
06:56
17:56
Waxing gibbous moon (167°)
17:47
05:44

METAR for Barnstable (KHYA)

Time Conditions Temperature/
Dewpoint
Wind Visibility Weather Clouds Pressure Change Raw
VFR 57.02°F / 37.04°F 270º 7kt >10km - Few Clouds 12000ft 1008 - KHYA 192156Z 27007KT 10SM FEW120 14/03 A2978 RMK AO2 SLP084 T01390028
VFR 60.08°F / 37.04°F 280º 8kt >10km - Clear 1007 - KHYA 192056Z 28008KT 10SM CLR 16/03 A2976 RMK AO2 SLP079 T01560028 56006
VFR 60.98°F / 37.94°F 260º 11kt Gust 16kt >10km - Clear 1008 - KHYA 191956Z 26011G16KT 10SM CLR 16/03 A2976 RMK AO2 SLP080 T01610033
VFR 60.08°F / 39.02°F 280º 12kt Gust 19kt >10km - Clear 1008 - KHYA 191856Z 28012G19KT 10SM CLR 16/04 A2977 RMK AO2 SLP080 T01560039
VFR 59°F / 39.92°F 300º 9kt >10km - Clear 1008 - KHYA 191756Z 30009KT 10SM CLR 15/04 A2978 RMK AO2 SLP085 T01500044 10156 20083 58017
VFR 57.02°F / 39.92°F 290º 11kt Gust 17kt >10km - Few Clouds 3800ft 1009 - KHYA 191656Z 29011G17KT 10SM FEW038 14/04 A2980 RMK AO2 SLP092 T01390044
VFR 55.04°F / 39.02°F 300º 8kt Gust 16kt >10km - Few Clouds 3700ft 1010 - KHYA 191556Z 30008G16KT 10SM FEW037 13/04 A2983 RMK AO2 SLP100 T01280039
VFR 53.96°F / 39.02°F 310º 6kt >10km - Clear 1010 - KHYA 191456Z 31006KT 10SM CLR 12/04 A2983 RMK AO2 SLP102 T01220039 58007
VFR 53.06°F / 39.92°F 290º 7kt Gust 16kt >10km - Clear 1010 - KHYA 191356Z 29007G16KT 10SM CLR 12/04 A2985 RMK AO2 SLP109 T01170044
VFR 50°F / 39.02°F 290º variable 270º to 330º 8kt >10km - Clear 1011 - KHYA 191256Z 29008KT 270V330 10SM CLR 10/04 A2986 RMK AO2 SLP111 T01000039
VFR 46.94°F / 37.94°F 290º 8kt >10km - Clear 1010 - KHYA 191156Z 29008KT 10SM CLR 08/03 A2985 RMK AO2 SLP109 T00830033 10089 20072 53008
VFR 46.04°F / 37.04°F 290º 6kt >10km - Clear 1010 - KHYA 191056Z 29006KT 10SM CLR 08/03 A2984 RMK AO2 SLP106 T00780028
VFR 44.96°F / 37.04°F 290º 7kt >10km - Clear 1010 - KHYA 190956Z 29007KT 10SM CLR 07/03 A2984 RMK AO2 SLP104 T00720028
VFR 46.04°F / 37.94°F 300º 7kt >10km - Clear 1010 - KHYA 190856Z AUTO 30007KT 10SM CLR 08/03 A2983 RMK AO2 SLP101 T00780033 53004
VFR 46.04°F / 39.02°F 300º 7kt >10km - Clear 1009 - KHYA 190756Z AUTO 30007KT 10SM CLR 08/04 A2980 RMK AO2 SLP093 T00780039
VFR 46.94°F / 39.02°F 310º 7kt >10km - Clear 1009 - KHYA 190656Z AUTO 31007KT 10SM CLR 08/04 A2981 RMK AO2 SLP096 T00830039
VFR 48.02°F / 39.92°F 310º 9kt >10km - Clear 1009 - KHYA 190556Z AUTO 31009KT 10SM CLR 09/04 A2982 RMK AO2 SLP097 T00890044 10122 20083 53007
VFR 48.02°F / 39.02°F 310º 7kt >10km - Clear 1009 - KHYA 190456Z AUTO 31007KT 10SM CLR 09/04 A2981 RMK AO2 SLP095 T00890039 401610089
VFR 48.92°F / 39.02°F 300º 8kt >10km - Clear 1009 - KHYA 190356Z AUTO 30008KT 10SM CLR 09/04 A2980 RMK AO2 SLP091 T00940039
VFR 50°F / 37.94°F 300º 8kt >10km - Clear 1009 - KHYA 190256Z AUTO 30008KT 10SM CLR 10/03 A2979 RMK AO2 SLP090 T01000033 52014
VFR 51.98°F / 37.94°F 320º 9kt Gust 18kt >10km - Clear 1008 - KHYA 190156Z 32009G18KT 10SM CLR 11/03 A2978 RMK AO2 SLP085 T01110033
VFR 53.06°F / 37.04°F 310º 12kt Gust 20kt >10km - Scattered Clouds 9000ft 1008 - KHYA 190056Z 31012G20KT 10SM SCT090 12/03 A2977 RMK AO2 SLP080 T01170028
VFR 53.96°F / 39.92°F 300º 6kt >10km - Overcast 9500ft 1007 - KHYA 182356Z 30006KT 10SM OVC095 12/04 A2975 RMK AO2 SLP075 T01220044 10161 20122 52021
VFR 53.96°F / 39.92°F 290º 5kt >10km - Overcast 10000ft 1006 - KHYA 182256Z 29005KT 10SM OVC100 12/04 A2973 RMK AO2 SLP069 T01220044

VFR

57.02°F / 37.04°F

[More]
Wind 270º 7kt
Visibility >10km
Weather -
Clouds Few Clouds 12000ft
Pressure 1008
Change -
Raw KHYA 192156Z 27007KT 10SM FEW120 14/03 A2978 RMK AO2 SLP084 T01390028

VFR

60.08°F / 37.04°F

[More]
Wind 280º 8kt
Visibility >10km
Weather -
Clouds Clear
Pressure 1007
Change -
Raw KHYA 192056Z 28008KT 10SM CLR 16/03 A2976 RMK AO2 SLP079 T01560028 56006

VFR

60.98°F / 37.94°F

[More]
Wind 260º 11kt Gust 16kt
Visibility >10km
Weather -
Clouds Clear
Pressure 1008
Change -
Raw KHYA 191956Z 26011G16KT 10SM CLR 16/03 A2976 RMK AO2 SLP080 T01610033

VFR

60.08°F / 39.02°F

[More]
Wind 280º 12kt Gust 19kt
Visibility >10km
Weather -
Clouds Clear
Pressure 1008
Change -
Raw KHYA 191856Z 28012G19KT 10SM CLR 16/04 A2977 RMK AO2 SLP080 T01560039

VFR

59°F / 39.92°F

[More]
Wind 300º 9kt
Visibility >10km
Weather -
Clouds Clear
Pressure 1008
Change -
Raw KHYA 191756Z 30009KT 10SM CLR 15/04 A2978 RMK AO2 SLP085 T01500044 10156 20083 58017

VFR

57.02°F / 39.92°F

[More]
Wind 290º 11kt Gust 17kt
Visibility >10km
Weather -
Clouds Few Clouds 3800ft
Pressure 1009
Change -
Raw KHYA 191656Z 29011G17KT 10SM FEW038 14/04 A2980 RMK AO2 SLP092 T01390044

VFR

55.04°F / 39.02°F

[More]
Wind 300º 8kt Gust 16kt
Visibility >10km
Weather -
Clouds Few Clouds 3700ft
Pressure 1010
Change -
Raw KHYA 191556Z 30008G16KT 10SM FEW037 13/04 A2983 RMK AO2 SLP100 T01280039

VFR

53.96°F / 39.02°F

[More]
Wind 310º 6kt
Visibility >10km
Weather -
Clouds Clear
Pressure 1010
Change -
Raw KHYA 191456Z 31006KT 10SM CLR 12/04 A2983 RMK AO2 SLP102 T01220039 58007

VFR

53.06°F / 39.92°F

[More]
Wind 290º 7kt Gust 16kt
Visibility >10km
Weather -
Clouds Clear
Pressure 1010
Change -
Raw KHYA 191356Z 29007G16KT 10SM CLR 12/04 A2985 RMK AO2 SLP109 T01170044

VFR

50°F / 39.02°F

[More]
Wind 290º variable 270º to 330º 8kt
Visibility >10km
Weather -
Clouds Clear
Pressure 1011
Change -
Raw KHYA 191256Z 29008KT 270V330 10SM CLR 10/04 A2986 RMK AO2 SLP111 T01000039

VFR

46.94°F / 37.94°F

[More]
Wind 290º 8kt
Visibility >10km
Weather -
Clouds Clear
Pressure 1010
Change -
Raw KHYA 191156Z 29008KT 10SM CLR 08/03 A2985 RMK AO2 SLP109 T00830033 10089 20072 53008

VFR

46.04°F / 37.04°F

[More]
Wind 290º 6kt
Visibility >10km
Weather -
Clouds Clear
Pressure 1010
Change -
Raw KHYA 191056Z 29006KT 10SM CLR 08/03 A2984 RMK AO2 SLP106 T00780028

VFR

44.96°F / 37.04°F

[More]
Wind 290º 7kt
Visibility >10km
Weather -
Clouds Clear
Pressure 1010
Change -
Raw KHYA 190956Z 29007KT 10SM CLR 07/03 A2984 RMK AO2 SLP104 T00720028

VFR

46.04°F / 37.94°F

[More]
Wind 300º 7kt
Visibility >10km
Weather -
Clouds Clear
Pressure 1010
Change -
Raw KHYA 190856Z AUTO 30007KT 10SM CLR 08/03 A2983 RMK AO2 SLP101 T00780033 53004

VFR

46.04°F / 39.02°F

[More]
Wind 300º 7kt
Visibility >10km
Weather -
Clouds Clear
Pressure 1009
Change -
Raw KHYA 190756Z AUTO 30007KT 10SM CLR 08/04 A2980 RMK AO2 SLP093 T00780039

VFR

46.94°F / 39.02°F

[More]
Wind 310º 7kt
Visibility >10km
Weather -
Clouds Clear
Pressure 1009
Change -
Raw KHYA 190656Z AUTO 31007KT 10SM CLR 08/04 A2981 RMK AO2 SLP096 T00830039

VFR

48.02°F / 39.92°F

[More]
Wind 310º 9kt
Visibility >10km
Weather -
Clouds Clear
Pressure 1009
Change -
Raw KHYA 190556Z AUTO 31009KT 10SM CLR 09/04 A2982 RMK AO2 SLP097 T00890044 10122 20083 53007

VFR

48.02°F / 39.02°F

[More]
Wind 310º 7kt
Visibility >10km
Weather -
Clouds Clear
Pressure 1009
Change -
Raw KHYA 190456Z AUTO 31007KT 10SM CLR 09/04 A2981 RMK AO2 SLP095 T00890039 401610089

VFR

48.92°F / 39.02°F

[More]
Wind 300º 8kt
Visibility >10km
Weather -
Clouds Clear
Pressure 1009
Change -
Raw KHYA 190356Z AUTO 30008KT 10SM CLR 09/04 A2980 RMK AO2 SLP091 T00940039

VFR

50°F / 37.94°F

[More]
Wind 300º 8kt
Visibility >10km
Weather -
Clouds Clear
Pressure 1009
Change -
Raw KHYA 190256Z AUTO 30008KT 10SM CLR 10/03 A2979 RMK AO2 SLP090 T01000033 52014

VFR

51.98°F / 37.94°F

[More]
Wind 320º 9kt Gust 18kt
Visibility >10km
Weather -
Clouds Clear
Pressure 1008
Change -
Raw KHYA 190156Z 32009G18KT 10SM CLR 11/03 A2978 RMK AO2 SLP085 T01110033

VFR

53.06°F / 37.04°F

[More]
Wind 310º 12kt Gust 20kt
Visibility >10km
Weather -
Clouds Scattered Clouds 9000ft
Pressure 1008
Change -
Raw KHYA 190056Z 31012G20KT 10SM SCT090 12/03 A2977 RMK AO2 SLP080 T01170028

VFR

53.96°F / 39.92°F

[More]
Wind 300º 6kt
Visibility >10km
Weather -
Clouds Overcast 9500ft
Pressure 1007
Change -
Raw KHYA 182356Z 30006KT 10SM OVC095 12/04 A2975 RMK AO2 SLP075 T01220044 10161 20122 52021

VFR

53.96°F / 39.92°F

[More]
Wind 290º 5kt
Visibility >10km
Weather -
Clouds Overcast 10000ft
Pressure 1006
Change -
Raw KHYA 182256Z 29005KT 10SM OVC100 12/04 A2973 RMK AO2 SLP069 T01220044

TAF for Barnstable (KHYA)

From till


From till Wind 260º 10kt. Gust 17kt. Visibility 10km or more. Few Clouds 10000ft.
From till Wind 270º 10kt. Visibility 10km or more. Scattered Clouds 8000ft.
From till Wind 290º 12kt. Gust 19kt. Visibility 10km or more. Few Clouds 25000ft.

Raw: KHYA 192031Z 1921/2018 26010G17KT P6SM FEW100 FM200000 27010KT P6SM SCT080 FM201500 29012G19KT P6SM FEW250

Current satellite images for Barnstable, United States of America

The location marker is placed on Barnstable. [More]

The real-time satellite image combines visible light during daytime with infrared radiation during nighttime. At night, the image is not dark as infrared radiation can detect temperature differences. Unfortunately, low clouds and fog are difficult to distinguish from ground temperatures and thus can be almost invisible during the night. Meteosat satellite images for Europe are updated in real-time every 5 minutes. GOES-16/GOES-17 (North & South America) and Himawari (Asia) images update every 10 minutes.

Radar and precipitation nowcast for Barnstable

Drizzle
Light
Moderate
Heavy
Very Heavy
Hail

The location marker is placed on Barnstable. This animation shows the precipitation radar for the last hour, as well as a 1h forecast. Drizzle or light snow fall might be invisible for the radar. Precipitation intensity is colour coded, ranging from light blue to orange.